• Join FlightAware (Why Join?)
  • Login
  • US Flag 
05:22PM EST


 

Airport Tracker/Info


-or-


 

Live Flight TrackerFlight Track Log ✈ UCA4794 ✈ 24-Jul-2014 ✈ KSYR - KEWR

Flight Track Log - Related Links

Times and Time Zones

All times are in EDT time to prevent confusion due to time zone crossing. See the UCA4794 flight status page for this flight to view local times or setup timezone preferences in your user account.

Time Position Orientation Groundspeed Altitude Reporting Facility
EDT Latitude Longitude Course Direction KTS MPH feet Rate Location/Type
01:30PM 43.1083 -76.1161 144° Southeast 113 130 900  Level Boston Center
01:31PM 43.0825 -76.1428 217° Southwest 173 199 2,200 1,320 Climbing Boston Center
01:32PM 43.0408 -76.0978 142° Southeast 209 241 3,600 1,560 Climbing Boston Center
01:33PM 42.9997 -76.0497 139° Southeast 199 229 5,400 1,560 Climbing Boston Center
01:33PM 42.9944 -76.0431 137° Southeast 189 217 5,600 960 Climbing Boston Center
01:34PM 42.9519 -75.9947 140° Southeast 187 215 6,700 1,080 Climbing Boston Center
01:35PM 42.7927 -75.8410 144° Southeast  Level Estimated
01:35PM 42.9086 -75.9464 141° Southeast 196 226 7,900  Level Boston Center
01:36PM 42.8500 -75.8889 144° Southeast 212 244 9,400 1,320 Climbing Boston Center
01:37PM 42.8008 -75.8372 142° Southeast 218 251 10,700 1,140 Climbing Boston Center
01:38PM 42.7472 -75.7956 150° Southeast 219 252 11,900 1,080 Climbing Boston Center
01:39PM 42.6919 -75.7583 154° Southeast 220 253 13,000 1,140 Climbing Boston Center
01:40PM 42.6361 -75.7186 152° Southeast 225 259 14,300 960 Climbing Boston Center
01:41PM 42.5814 -75.6794 152° Southeast 225 259 15,000 300 Climbing Boston Center
01:42PM 42.5058 -75.6272 153° Southeast 259 298 15,000  Level Boston Center
01:43PM 42.4356 -75.5769 152° Southeast 278 320 15,000  Level Boston Center
01:44PM 42.3661 -75.5275 152° Southeast 281 323 15,000  Level Boston Center
01:45PM 42.2975 -75.4786 152° Southeast 281 323 15,000  Level Boston Center
01:46PM 42.2289 -75.4308 153° Southeast 279 321 15,100  Climbing Boston Center
01:47PM 42.1469 -75.3750 153° Southeast 278 320 15,100  Level Boston Center
01:48PM 42.0786 -75.3269 152° Southeast 277 319 15,100 -60 Level Boston Center
01:49PM 42.0358 -75.2406 124° Southeast 286 329 15,000 -60 Descending Boston Center
01:50PM 42.0000 -75.1447 117° Southeast 287 330 15,000  Level Boston Center
01:51PM 41.9592 -75.0364 117° Southeast 287 330 15,000 -180 Level Boston Center
01:53PM 41.9200 -74.9439 120° Southeast 285 328 14,700 -960 Descending Boston Center
01:54PM 41.8561 -74.8639 137° Southeast 290 334 13,000 -1,620 Descending Boston Center
01:55PM 41.7978 -74.7839 134° Southeast 296 341 11,400 -1,680 Descending Boston Center
01:56PM 41.7272 -74.7156 144° Southeast 293 337 9,600 -1,680 Descending Boston Center
01:57PM 41.6519 -74.6881 165° South 283 326 8,000 -1,320 Descending Boston Center
01:58PM 41.5800 -74.6606 164° South 271 312 7,000 -540 Descending Boston Center
01:59PM 41.5078 -74.6300 162° South 259 298 7,000 -540 Level Boston Center
02:00PM 41.4356 -74.6031 164° South 267 307 6,000 -480 Descending Boston Center
02:01PM 41.3608 -74.6092 184° South 260 299 6,000  Level Boston Center
02:02PM 41.2931 -74.6358 196° South 259 298 6,100 -540 Climbing Boston Center
02:03PM 41.2167 -74.6333 179° South 253 291 5,000 -1,020 Descending New York TRACON
02:04PM 41.1500 -74.6000 159° South 251 289 4,100 -480 Descending New York TRACON
02:05PM 41.0833 -74.5833 169° South 254 292 4,100 -180 Level New York TRACON
02:06PM 41.0167 -74.5667 169° South 252 290 3,800 -540 Descending New York TRACON
02:07PM 40.9500 -74.5333 159° South 245 282 3,100 -360 Descending New York TRACON
02:08PM 40.8833 -74.5000 159° South 248 285 3,100  Level New York TRACON
02:09PM 40.8333 -74.4667 153° Southeast 244 281 3,100  Level New York TRACON
02:09PM 40.7953 -74.4539 166° South 247 284 3,100 -480 Level New York Center
02:10PM 40.7300 -74.4158 156° South 240 276 2,400 -540 Descending New York Center
02:11PM 40.7114 -74.3397 108° East 221 254 2,100 -540 Descending New York Center
02:12PM 40.7075 -74.2683 94° East 187 215 1,400 -720 Descending New York Center
02:14PM 40.7050 -74.2106 93° East 162 186 600 -480 Descending New York Center
02:15PM 40.7017 -74.1594 95° East 157 181 400 -240 Descending New York Center
02:17PM 40.6925 -74.1687 217° Southwest  Level Estimated